Time;durP1;ratioP1;P1;durP2;ratioP2;P2;SDS_P1;SDS_P2;PMS_P1;PMS_P2;Temp;Humidity;BMP_temperature;BMP_pressure;BME280_temperature;BME280_humidity;BME280_pressure;Samples;Min_cycle;Max_cycle;Signal;HPM_P1;HPM_P2
2022/03/09 00:02:23;;;;;;;6.13;3.50;;;2.90;74.10;;;;;;5098658;28;20039;-83
2022/03/09 00:05:08;;;;;;;6.93;3.25;;;2.90;74.20;;;;;;5098840;28;20038;-84
2022/03/09 00:07:52;;;;;;;6.55;3.83;;;2.70;74.40;;;;;;5114298;28;20043;-84
2022/03/09 00:10:37;;;;;;;5.85;3.67;;;2.60;75.20;;;;;;5113802;28;20045;-83
2022/03/09 00:13:21;;;;;;;6.70;3.58;;;2.90;74.90;;;;;;5078813;28;20070;-83
2022/03/09 00:16:05;;;;;;;6.03;3.80;;;2.60;74.90;;;;;;5087906;28;20379;-83
2022/03/09 00:18:50;;;;;;;5.30;3.83;;;2.60;75.10;;;;;;5087939;28;20116;-84
2022/03/09 00:21:34;;;;;;;;;;;2.50;75.40;;;;;;5099154;28;20082;-84
2022/03/09 00:24:19;;;;;;;5.68;3.70;;;2.50;75.90;;;;;;5055419;28;19954;-84
2022/03/09 00:27:03;;;;;;;7.87;4.20;;;2.50;75.70;;;;;;5080844;28;20101;-83
2022/03/09 00:29:47;;;;;;;6.90;3.20;;;2.40;75.70;;;;;;5056729;28;20036;-84
2022/03/09 00:32:31;;;;;;;;;;;2.80;76.20;;;;;;5078995;28;20085;-83
2022/03/09 00:35:16;;;;;;;7.85;3.72;;;2.40;76.40;;;;;;5098335;28;19993;-86
2022/03/09 00:37:59;;;;;;;;;;;2.30;76.00;;;;;;5096962;28;20523;-83
2022/03/09 00:40:47;;;;;;;8.13;3.88;;;3.10;77.10;;;;;;5094184;28;20379;-84
2022/03/09 00:43:31;;;;;;;9.53;4.17;;;2.30;76.30;;;;;;5087484;28;20266;-83
2022/03/09 00:46:16;;;;;;;8.55;4.13;;;2.30;76.50;;;;;;5068085;28;20039;-84
2022/03/09 00:49:01;;;;;;;9.37;4.50;;;3.00;77.30;;;;;;5112485;28;20100;-83
2022/03/09 00:51:45;;;;;;;8.20;4.70;;;2.20;77.10;;;;;;5094088;28;20113;-83
2022/03/09 00:54:29;;;;;;;;;;;2.40;77.40;;;;;;5078440;28;20035;-83
2022/03/09 00:57:14;;;;;;;6.57;4.30;;;2.10;77.60;;;;;;5097050;28;20499;-84
2022/03/09 00:59:58;;;;;;;8.57;4.13;;;2.10;77.50;;;;;;5064397;28;20099;-84
2022/03/09 01:02:44;;;;;;;11.60;3.97;;;2.10;77.60;;;;;;5092956;28;20514;-83
2022/03/09 01:05:29;;;;;;;7.07;4.17;;;2.10;77.80;;;;;;5092484;28;20035;-83
2022/03/09 01:08:13;;;;;;;8.73;4.57;;;2.10;78.00;;;;;;5093204;28;20093;-84
2022/03/09 01:10:57;;;;;;;;;;;2.00;78.20;;;;;;5073525;28;20055;-84
2022/03/09 01:13:41;;;;;;;8.43;3.88;;;2.00;79.00;;;;;;5091625;28;19994;-83
2022/03/09 01:16:25;;;;;;;;;;;2.50;78.70;;;;;;5092070;28;20047;-83
2022/03/09 01:19:10;;;;;;;8.63;4.60;;;1.90;78.90;;;;;;5091864;28;19966;-83
2022/03/09 01:21:54;;;;;;;8.20;4.03;;;2.00;78.50;;;;;;5092157;28;20038;-83
2022/03/09 01:24:38;;;;;;;;;;;2.00;78.60;;;;;;5086646;28;20039;-82
2022/03/09 01:27:23;;;;;;;6.75;4.20;;;2.00;79.20;;;;;;5091889;28;19918;-85
2022/03/09 01:30:08;;;;;;;7.78;4.60;;;1.90;78.90;;;;;;5092826;28;20116;-82
2022/03/09 01:32:52;;;;;;;8.23;5.03;;;1.90;78.90;;;;;;5063419;28;20506;-83
2022/03/09 01:35:37;;;;;;;9.33;4.43;;;1.90;79.30;;;;;;5076882;28;20495;-83
2022/03/09 01:38:21;;;;;;;8.48;4.22;;;1.80;79.60;;;;;;5085179;28;20050;-83
2022/03/09 01:41:06;;;;;;;9.23;4.35;;;1.80;79.90;;;;;;5092375;28;20047;-83
2022/03/09 01:44:08;;;;;;;10.82;4.22;;;1.90;80.30;;;;;;5072273;28;20125;-83
2022/03/09 01:46:53;;;;;;;7.90;4.00;;;2.60;81.60;;;;;;5091497;28;20507;-83
2022/03/09 01:49:39;;;;;;;7.40;4.67;;;1.60;80.70;;;;;;5085345;28;20039;-83
2022/03/09 01:52:24;;;;;;;9.93;5.32;;;1.70;80.80;;;;;;5092136;28;20530;-83
2022/03/09 01:55:10;;;;;;;8.67;4.63;;;1.70;81.00;;;;;;5091871;28;20039;-83
2022/03/09 01:57:54;;;;;;;7.00;4.07;;;1.70;81.20;;;;;;5092461;28;20445;-83
2022/03/09 02:00:38;;;;;;;;;;;2.30;81.60;;;;;;5090966;28;20063;-83
2022/03/09 02:03:22;;;;;;;8.15;4.90;;;2.30;82.30;;;;;;5091174;28;19962;-83
2022/03/09 02:06:06;;;;;;;7.10;4.50;;;1.60;81.40;;;;;;5091868;28;20039;-84
2022/03/09 02:11:55;;;;;;;8.87;5.20;;;1.60;82.00;;;;;;5104978;28;19968;-81
2022/03/09 02:14:42;;;;;;;9.00;5.40;;;1.60;81.50;;;;;;5108722;28;20039;-82
2022/03/09 02:17:28;;;;;;;6.23;4.60;;;1.60;81.60;;;;;;5110253;28;20035;-83
2022/03/09 02:20:14;;;;;;;14.07;5.40;;;1.60;82.00;;;;;;5110642;28;20039;-83
2022/03/09 02:23:00;;;;;;;9.15;4.63;;;1.60;82.10;;;;;;5111744;28;20046;-83
2022/03/09 02:25:44;;;;;;;8.23;4.83;;;1.70;82.50;;;;;;5110579;28;20039;-82
2022/03/09 02:28:29;;;;;;;8.40;4.77;;;1.50;82.60;;;;;;5111243;28;20056;-81
2022/03/09 02:31:14;;;;;;;7.20;4.80;;;1.40;82.70;;;;;;5093597;28;20131;-83
2022/03/09 02:33:58;;;;;;;10.60;5.53;;;1.40;83.10;;;;;;5090988;28;20089;-83
2022/03/09 02:36:42;;;;;;;11.20;5.77;;;1.40;83.40;;;;;;5062089;28;20093;-83
2022/03/09 02:39:26;;;;;;;;;;;1.50;83.80;;;;;;5092071;28;20039;-83
2022/03/09 02:42:11;;;;;;;8.80;4.68;;;1.30;84.30;;;;;;5090806;28;19919;-84
2022/03/09 02:44:55;;;;;;;11.50;5.50;;;2.50;84.60;;;;;;5091269;28;20502;-83
2022/03/09 02:47:41;;;;;;;8.40;5.03;;;1.80;84.50;;;;;;5074205;28;20387;-83
2022/03/09 02:50:25;;;;;;;8.60;5.00;;;1.60;84.70;;;;;;5090620;28;20075;-83
2022/03/09 02:53:09;;;;;;;;;;;1.60;84.90;;;;;;5070902;28;20040;-83
2022/03/09 02:55:54;;;;;;;11.23;5.82;;;1.30;85.40;;;;;;5084488;28;19982;-83
2022/03/09 02:58:37;;;;;;;;;;;1.20;84.70;;;;;;5091734;28;20031;-83
2022/03/09 03:01:22;;;;;;;8.63;4.82;;;1.30;85.60;;;;;;5089948;28;19992;-83
2022/03/09 03:04:06;;;;;;;10.77;6.10;;;1.30;84.80;;;;;;5091633;28;20404;-84
2022/03/09 03:06:51;;;;;;;8.50;5.33;;;1.30;84.90;;;;;;5090150;28;20067;-83
2022/03/09 03:09:35;;;;;;;;;;;1.80;85.40;;;;;;5091753;28;20046;-85
2022/03/09 03:12:19;;;;;;;8.05;5.32;;;1.20;85.60;;;;;;5090488;28;20413;-83
2022/03/09 03:15:05;;;;;;;;;;;1.20;85.30;;;;;;5092494;28;20495;-82
2022/03/09 03:17:50;;;;;;;8.33;5.03;;;1.10;86.10;;;;;;5083392;28;20399;-83
2022/03/09 03:20:34;;;;;;;10.23;5.63;;;1.10;85.60;;;;;;5091451;28;20047;-83
2022/03/09 03:23:18;;;;;;;9.53;6.10;;;1.10;85.80;;;;;;5061868;28;20510;-83
2022/03/09 03:26:04;;;;;;;;;;;1.20;86.40;;;;;;5076311;28;20078;-83
2022/03/09 03:28:48;;;;;;;10.80;5.93;;;1.20;87.30;;;;;;5091556;28;20321;-83
2022/03/09 03:31:33;;;;;;;10.20;5.20;;;1.90;87.00;;;;;;5079722;28;20120;-83
2022/03/09 03:34:17;;;;;;;9.83;5.57;;;1.10;86.80;;;;;;5094959;28;20047;-83
2022/03/09 03:37:01;;;;;;;;;;;1.10;87.10;;;;;;5088421;28;20077;-83
2022/03/09 03:39:46;;;;;;;10.27;5.43;;;1.00;87.70;;;;;;5092035;28;20279;-83
2022/03/09 03:42:30;;;;;;;12.23;6.03;;;1.00;87.40;;;;;;5093784;28;20089;-83
2022/03/09 03:45:14;;;;;;;10.33;6.37;;;1.00;87.70;;;;;;5079673;28;20039;-83
2022/03/09 03:48:02;;;;;;;11.70;5.93;;;0.90;87.80;;;;;;5093299;28;20096;-83
2022/03/09 03:50:46;;;;;;;9.43;6.40;;;1.00;88.40;;;;;;5093245;28;20071;-83
2022/03/09 03:53:30;;;;;;;;;;;1.10;89.10;;;;;;5095055;28;20038;-83
2022/03/09 03:56:14;;;;;;;12.85;6.85;;;0.70;90.00;;;;;;5093827;28;19981;-83
2022/03/09 03:58:58;;;;;;;12.38;5.82;;;0.90;89.60;;;;;;5094140;28;20039;-83
2022/03/09 04:01:42;;;;;;;10.63;6.03;;;0.60;89.70;;;;;;5094122;28;20054;-86
2022/03/09 04:04:26;;;;;;;;;;;0.60;89.90;;;;;;5093753;28;20063;-83
2022/03/09 04:07:10;;;;;;;11.05;5.72;;;0.70;90.40;;;;;;5094445;28;19954;-83
2022/03/09 04:09:54;;;;;;;;;;;0.70;90.10;;;;;;5093267;28;20498;-83
2022/03/09 04:12:39;;;;;;;9.93;6.35;;;0.70;90.50;;;;;;5093355;28;19958;-83
2022/03/09 04:15:23;;;;;;;11.60;6.60;;;0.70;90.20;;;;;;5093920;28;20495;-84
2022/03/09 04:18:07;;;;;;;9.07;5.30;;;0.70;90.40;;;;;;5088395;28;20043;-83
2022/03/09 04:20:52;;;;;;;9.83;6.83;;;0.70;90.30;;;;;;5092521;28;20526;-83
2022/03/09 04:23:37;;;;;;;10.47;6.23;;;0.80;90.50;;;;;;5078850;28;20062;-83
2022/03/09 04:26:21;;;;;;;10.40;5.90;;;0.80;90.50;;;;;;5078857;28;20146;-83
2022/03/09 04:29:05;;;;;;;12.17;6.30;;;2.10;91.10;;;;;;5093496;28;20123;-83
2022/03/09 04:31:49;;;;;;;;;;;0.80;90.90;;;;;;5092730;28;20108;-84
2022/03/09 04:34:33;;;;;;;9.68;5.93;;;0.80;91.10;;;;;;5093701;28;20329;-83
2022/03/09 04:37:19;;;;;;;10.80;6.13;;;0.80;90.90;;;;;;5068288;28;20142;-83
2022/03/09 04:40:04;;;;;;;12.47;7.00;;;1.40;91.00;;;;;;5085585;28;20047;-83
2022/03/09 04:42:48;;;;;;;10.83;6.33;;;0.70;91.00;;;;;;5093393;28;20123;-85
2022/03/09 04:45:33;;;;;;;11.90;6.10;;;0.70;91.10;;;;;;5078675;28;20118;-84
2022/03/09 04:48:17;;;;;;;11.63;6.10;;;0.60;91.40;;;;;;5094156;28;20085;-83
2022/03/09 04:51:02;;;;;;;11.10;6.03;;;0.60;91.70;;;;;;5092857;28;20054;-84
2022/03/09 04:53:46;;;;;;;10.17;6.47;;;0.60;91.50;;;;;;5092099;28;20119;-84
2022/03/09 04:56:30;;;;;;;10.07;5.95;;;0.50;91.90;;;;;;5093538;28;20039;-83
2022/03/09 04:59:17;;;;;;;10.93;6.10;;;0.50;91.80;;;;;;5093699;28;20105;-84
2022/03/09 05:02:02;;;;;;;11.40;6.73;;;0.60;91.90;;;;;;5085379;28;20038;-84
2022/03/09 05:04:46;;;;;;;11.97;7.27;;;0.50;92.00;;;;;;5093746;28;20039;-83
2022/03/09 05:07:30;;;;;;;;;;;0.70;92.20;;;;;;5110570;28;20547;-84
2022/03/09 05:10:14;;;;;;;8.98;5.47;;;0.50;92.50;;;;;;5108416;28;19934;-84
2022/03/09 05:12:58;;;;;;;;;;;0.50;92.20;;;;;;5097960;28;20112;-84
2022/03/09 05:15:43;;;;;;;12.90;6.38;;;0.40;92.70;;;;;;5097638;28;19922;-83
2022/03/09 05:18:26;;;;;;;;;;;0.40;92.50;;;;;;5083993;28;20051;-84
2022/03/09 05:21:11;;;;;;;9.80;6.25;;;0.80;93.00;;;;;;5099463;28;20793;-84
2022/03/09 05:23:55;;;;;;;12.43;5.78;;;0.40;92.50;;;;;;5095688;28;20095;-84
2022/03/09 05:26:39;;;;;;;;;;;0.90;92.90;;;;;;5082018;28;20035;-84
2022/03/09 05:29:23;;;;;;;11.25;6.25;;;0.50;93.00;;;;;;5113063;28;19918;-84
2022/03/09 05:32:07;;;;;;;10.70;6.70;;;0.80;92.70;;;;;;5112546;28;20084;-84
2022/03/09 05:40:03;;;;;;;11.47;6.70;;;0.40;92.90;;;;;;5230982;22;20519;-84
2022/03/09 05:42:47;;;;;;;10.40;6.60;;;0.50;93.10;;;;;;5062217;28;20091;-83
2022/03/09 05:45:31;;;;;;;11.05;6.78;;;0.40;93.20;;;;;;5052387;28;20123;-83
2022/03/09 05:48:15;;;;;;;;;;;0.50;93.30;;;;;;5050462;28;20063;-83
2022/03/09 05:50:59;;;;;;;8.13;5.25;;;0.40;93.70;;;;;;5060818;28;19919;-83
2022/03/09 05:53:43;;;;;;;;;;;0.40;93.50;;;;;;5051935;28;20072;-83
2022/03/09 05:56:28;;;;;;;11.90;6.80;;;0.40;93.80;;;;;;5043540;28;20180;-83
2022/03/09 05:59:11;;;;;;;13.15;6.40;;;0.30;93.50;;;;;;5051210;28;20044;-84
2022/03/09 06:01:56;;;;;;;12.60;5.97;;;0.80;93.70;;;;;;5041253;28;20040;-83
2022/03/09 06:04:40;;;;;;;;;;;0.30;93.60;;;;;;5053325;28;20040;-83
2022/03/09 06:07:24;;;;;;;12.23;6.13;;;0.40;94.00;;;;;;5036420;28;19920;-84
2022/03/09 06:10:08;;;;;;;;;;;0.70;93.80;;;;;;5048761;28;20556;-85
2022/03/09 06:12:52;;;;;;;8.10;5.47;;;0.40;94.10;;;;;;5056097;28;19965;-86
2022/03/09 06:15:36;;;;;;;9.40;6.30;;;0.30;93.80;;;;;;5056286;28;20044;-84
2022/03/09 06:18:20;;;;;;;;;;;0.30;93.80;;;;;;5071364;28;20062;-84
2022/03/09 06:21:10;;;;;;;11.48;6.47;;;0.30;94.20;;;;;;5071016;28;19927;-84
2022/03/09 06:23:54;;;;;;;11.90;6.47;;;0.30;94.30;;;;;;5056213;28;20038;-83
2022/03/09 06:26:38;;;;;;;10.45;6.53;;;0.30;94.10;;;;;;5049360;28;20047;-84
2022/03/09 06:29:23;;;;;;;12.33;6.70;;;0.30;94.20;;;;;;5052043;28;20040;-84
2022/03/09 06:32:07;;;;;;;12.87;7.07;;;0.30;94.40;;;;;;5058863;28;20550;-84
2022/03/09 06:34:52;;;;;;;11.53;7.37;;;0.30;94.50;;;;;;5052892;28;20036;-84
2022/03/09 06:37:36;;;;;;;;;;;0.30;94.60;;;;;;5053520;28;20400;-84
2022/03/09 06:40:21;;;;;;;12.77;6.90;;;0.40;95.00;;;;;;5070549;28;20008;-84
2022/03/09 06:43:05;;;;;;;10.07;6.40;;;0.40;94.70;;;;;;5070896;28;20120;-84
2022/03/09 06:45:50;;;;;;;13.40;6.57;;;0.40;94.70;;;;;;5053874;28;20541;-84
2022/03/09 06:48:34;;;;;;;11.70;6.50;;;0.50;94.70;;;;;;5052950;28;20550;-84
2022/03/09 06:51:18;;;;;;;9.50;6.53;;;0.70;94.80;;;;;;5053514;28;20557;-84
2022/03/09 06:54:03;;;;;;;12.53;6.10;;;0.50;94.90;;;;;;5026606;28;20040;-84
2022/03/09 06:56:51;;;;;;;10.43;6.20;;;0.60;94.90;;;;;;5055207;28;20085;-84
2022/03/09 06:59:37;;;;;;;9.93;6.37;;;0.70;95.00;;;;;;5040404;28;20046;-84
2022/03/09 07:02:21;;;;;;;10.40;6.37;;;0.80;95.00;;;;;;5054806;28;20039;-84
2022/03/09 07:05:06;;;;;;;12.13;6.57;;;0.80;95.00;;;;;;5043408;28;20059;-84
2022/03/09 07:07:51;;;;;;;11.93;6.93;;;0.90;95.00;;;;;;5057831;28;20039;-84
2022/03/09 07:10:35;;;;;;;12.40;6.37;;;1.00;95.00;;;;;;5057560;28;20227;-84
2022/03/09 07:13:19;;;;;;;;;;;1.10;95.00;;;;;;5068069;28;20039;-83
2022/03/09 07:16:03;;;;;;;9.38;5.75;;;1.10;95.10;;;;;;5070098;28;19919;-84
2022/03/09 07:18:47;;;;;;;13.17;7.40;;;1.30;94.90;;;;;;5058607;28;20036;-83
2022/03/09 07:21:32;;;;;;;12.57;6.80;;;1.40;94.70;;;;;;5045004;28;20098;-85
2022/03/09 07:24:17;;;;;;;11.73;7.03;;;1.60;94.60;;;;;;5075972;28;20451;-88
2022/03/09 07:27:01;;;;;;;13.50;7.03;;;1.70;94.50;;;;;;5048709;28;20044;-83
2022/03/09 07:29:46;;;;;;;13.07;6.97;;;1.80;94.40;;;;;;5063863;28;20094;-82
2022/03/09 07:32:30;;;;;;;;;;;1.90;94.40;;;;;;5073756;28;20395;-83
2022/03/09 07:35:14;;;;;;;11.15;7.15;;;2.20;95.50;;;;;;5026189;28;19950;-83
2022/03/09 07:37:58;;;;;;;;;;;3.10;96.30;;;;;;5042904;28;20072;-84
2022/03/09 07:40:43;;;;;;;13.18;7.40;;;5.00;94.80;;;;;;5054254;28;19971;-84
2022/03/09 07:43:27;;;;;;;13.85;9.00;;;5.90;91.60;;;;;;5049308;28;20047;-84
2022/03/09 07:46:12;;;;;;;12.43;8.18;;;7.30;87.70;;;;;;5040516;28;20041;-82
2022/03/09 07:48:56;;;;;;;14.50;8.68;;;8.10;81.70;;;;;;5047182;28;20035;-83
2022/03/09 07:51:40;;;;;;;;;;;9.00;77.40;;;;;;5072613;28;20058;-85
2022/03/09 07:54:24;;;;;;;9.30;6.15;;;9.70;75.50;;;;;;5063624;28;19979;-84
2022/03/09 07:57:09;;;;;;;10.48;6.45;;;10.50;73.30;;;;;;5072027;28;20073;-87
2022/03/09 07:59:53;;;;;;;15.13;6.63;;;11.20;69.70;;;;;;5075813;28;20050;-85
2022/03/09 08:02:38;;;;;;;12.65;6.75;;;11.90;65.10;;;;;;5056627;28;20091;-84
2022/03/09 08:05:22;;;;;;;12.63;7.03;;;12.20;63.20;;;;;;5040613;28;20040;-86
2022/03/09 08:08:06;;;;;;;10.43;6.75;;;12.30;60.70;;;;;;5025243;28;20586;-84
2022/03/09 08:10:51;;;;;;;;;;;12.10;59.60;;;;;;5035394;28;20107;-84
2022/03/09 08:13:35;;;;;;;13.32;6.55;;;11.70;58.80;;;;;;5038617;28;19962;-85
2022/03/09 08:16:19;;;;;;;12.18;7.05;;;11.00;59.50;;;;;;5055527;28;20075;-84
2022/03/09 08:19:03;;;;;;;10.90;6.25;;;10.10;61.20;;;;;;5031811;28;20106;-85
2022/03/09 08:21:48;;;;;;;10.00;6.78;;;9.60;62.80;;;;;;5039375;28;20083;-85
2022/03/09 08:24:35;;;;;;;;;;;9.40;64.20;;;;;;5038853;28;20563;-84
2022/03/09 08:27:19;;;;;;;12.27;7.03;;;9.60;63.20;;;;;;5047115;28;20015;-85
2022/03/09 08:30:04;;;;;;;;;;;9.80;64.20;;;;;;5054611;28;20413;-84
2022/03/09 08:32:48;;;;;;;12.50;6.00;;;10.10;62.20;;;;;;5050913;28;19919;-85
2022/03/09 08:35:32;;;;;;;;;;;10.30;62.70;;;;;;5055926;28;20071;-84
2022/03/09 08:38:16;;;;;;;10.57;6.03;;;10.40;60.70;;;;;;5070384;28;19918;-87
2022/03/09 08:41:01;;;;;;;12.18;6.55;;;10.20;61.30;;;;;;5044134;28;20079;-85
2022/03/09 08:43:45;;;;;;;10.80;6.45;;;9.70;61.50;;;;;;5041958;28;20044;-84
2022/03/09 08:46:29;;;;;;;;;;;9.20;62.70;;;;;;5057807;28;20404;-88
2022/03/09 08:49:14;;;;;;;12.93;7.28;;;8.80;60.60;;;;;;5049971;28;19934;-84
2022/03/09 08:51:58;;;;;;;10.68;6.47;;;8.50;64.70;;;;;;5058423;28;20040;-84
2022/03/09 08:54:43;;;;;;;10.77;7.28;;;8.70;65.50;;;;;;5057751;28;20396;-85
2022/03/09 08:57:27;;;;;;;;;;;9.10;65.40;;;;;;5058031;28;20044;-85
2022/03/09 09:00:14;;;;;;;8.30;6.03;;;9.50;64.00;;;;;;5038353;28;19954;-85
2022/03/09 09:03:00;;;;;;;10.50;6.25;;;10.00;62.60;;;;;;5035408;28;20040;-85
2022/03/09 09:05:45;;;;;;;9.45;6.22;;;10.10;62.10;;;;;;5043125;28;20081;-85
2022/03/09 09:08:30;;;;;;;13.00;6.13;;;10.00;62.10;;;;;;5041679;28;20071;-85
2022/03/09 09:11:14;;;;;;;9.27;5.57;;;10.00;61.50;;;;;;5052036;28;20067;-86
2022/03/09 09:13:59;;;;;;;9.45;6.20;;;10.00;61.60;;;;;;5032803;28;20039;-84
2022/03/09 09:16:43;;;;;;;9.13;6.20;;;9.80;62.00;;;;;;5036102;28;20167;-84
2022/03/09 09:19:28;;;;;;;10.50;5.93;;;9.60;60.90;;;;;;5038420;28;20155;-84
2022/03/09 09:22:13;;;;;;;10.35;5.80;;;9.40;60.70;;;;;;5069330;28;20038;-83
2022/03/09 09:25:01;;;;;;;11.23;6.40;;;9.10;60.60;;;;;;5037722;28;20507;-87
2022/03/09 09:27:45;;;;;;;13.35;5.90;;;9.90;61.20;;;;;;5035982;28;20048;-85
2022/03/09 09:30:32;;;;;;;7.82;5.53;;;8.90;60.20;;;;;;5053540;28;20043;-85
2022/03/09 09:33:16;;;;;;;10.50;6.03;;;8.90;60.40;;;;;;5054428;28;20036;-86
2022/03/09 09:36:00;;;;;;;11.85;6.05;;;8.80;60.10;;;;;;5040940;28;20044;-85
2022/03/09 09:38:45;;;;;;;10.00;5.90;;;8.80;59.60;;;;;;5056429;28;20437;-86
2022/03/09 09:41:33;;;;;;;9.55;6.03;;;9.70;60.30;;;;;;5040323;28;20075;-86
2022/03/09 09:44:19;;;;;;;9.02;6.18;;;8.80;60.90;;;;;;5038317;28;20515;-85
2022/03/09 09:47:05;;;;;;;10.27;6.07;;;8.80;60.80;;;;;;5049851;28;20039;-86
2022/03/09 09:49:49;;;;;;;13.05;6.60;;;8.90;60.00;;;;;;5042500;28;20122;-85
2022/03/09 09:52:36;;;;;;;10.18;6.30;;;8.90;60.40;;;;;;5037651;28;20040;-86
2022/03/09 09:55:20;;;;;;;9.90;6.45;;;9.00;60.60;;;;;;5051934;28;20055;-85
2022/03/09 09:58:04;;;;;;;12.10;7.28;;;9.20;60.40;;;;;;5009614;28;20094;-83
2022/03/09 10:00:49;;;;;;;9.48;5.82;;;9.30;59.90;;;;;;5063847;28;20055;-85
2022/03/09 10:03:33;;;;;;;;;;;9.50;59.90;;;;;;5055472;28;20547;-85
2022/03/09 10:06:17;;;;;;;11.18;7.00;;;9.70;58.40;;;;;;5026650;28;20350;-85
2022/03/09 10:09:11;;;;;;;10.02;6.22;;;10.00;59.80;;;;;;5050690;28;20396;-85
2022/03/09 10:11:55;;;;;;;8.53;6.23;;;10.30;59.10;;;;;;5059547;28;20066;-84
2022/03/09 10:14:53;;;;;;;9.25;6.10;;;10.40;58.70;;;;;;5055937;28;20047;-89
2022/03/09 10:17:37;;;;;;;9.52;6.97;;;10.70;58.20;;;;;;5039241;28;20083;-87
2022/03/09 10:20:23;;;;;;;12.00;6.72;;;11.30;58.50;;;;;;5038872;28;20094;-87
2022/03/09 10:23:08;;;;;;;10.20;6.72;;;11.80;56.60;;;;;;5050816;28;20032;-87
2022/03/09 10:26:01;;;;;;;15.43;8.48;;;11.90;56.70;;;;;;5056594;28;20039;-87
2022/03/09 10:29:03;;;;;;;11.05;7.38;;;11.90;54.70;;;;;;5042053;28;20040;-86
2022/03/09 10:31:51;;;;;;;11.77;6.20;;;11.60;54.70;;;;;;5062526;28;20068;-91
2022/03/09 10:34:46;;;;;;;10.15;6.38;;;11.30;55.40;;;;;;5054029;28;20475;-86
2022/03/09 10:37:57;;;;;;;11.00;7.13;;;11.30;55.80;;;;;;5061275;28;20040;-90
2022/03/09 10:40:54;;;;;;;10.82;6.15;;;11.20;55.10;;;;;;5055785;28;20047;-90
2022/03/09 10:44:13;;;;;;;7.80;6.05;;;11.40;57.70;;;;;;5056294;28;20443;-93
2022/03/09 10:47:03;;;;;;;9.65;6.40;;;11.70;57.40;;;;;;5061998;28;20031;-92
2022/03/09 10:49:50;;;;;;;8.70;5.93;;;11.40;59.30;;;;;;5048464;28;20060;-93
2022/03/09 11:00:46;;;;;;;9.60;6.57;;;12.80;54.70;;;;;;5064841;28;20048;-93
2022/03/09 11:07:14;;;;;;;10.13;6.93;;;14.40;50.90;;;;;;5050233;28;20064;-91
2022/03/09 11:10:25;;;;;;;10.15;6.78;;;12.80;51.80;;;;;;5040514;28;20044;-94
2022/03/09 11:13:26;;;;;;;9.90;6.60;;;12.90;51.70;;;;;;5041772;28;20149;-93
2022/03/09 11:16:17;;;;;;;10.90;7.00;;;13.30;53.90;;;;;;5050228;28;20043;-94
2022/03/09 11:19:15;;;;;;;10.60;6.97;;;13.10;52.30;;;;;;5040650;28;20122;-91
2022/03/09 11:26:19;;;;;;;11.93;7.05;;;13.60;52.50;;;;;;5048323;28;20075;-94
2022/03/09 11:29:09;;;;;;;14.35;6.93;;;12.70;50.00;;;;;;5055370;28;20178;-90
2022/03/09 11:32:16;;;;;;;10.55;7.82;;;13.70;50.80;;;;;;5047004;28;20036;-90
2022/03/09 11:35:24;;;;;;;12.85;6.22;;;13.30;49.40;;;;;;5046569;28;20083;-91
2022/03/09 11:38:33;;;;;;;9.23;7.10;;;13.40;50.30;;;;;;5044461;28;20100;-89
2022/03/09 11:41:21;;;;;;;11.05;6.95;;;13.20;50.60;;;;;;5047849;28;20102;-87
2022/03/09 11:44:29;;;;;;;10.27;7.03;;;13.00;52.60;;;;;;5051565;28;20434;-87
2022/03/09 11:47:14;;;;;;;10.20;6.43;;;13.00;50.80;;;;;;5068601;28;20112;-87
2022/03/09 11:49:59;;;;;;;9.93;7.07;;;13.00;51.70;;;;;;5051119;28;20090;-88
2022/03/09 11:53:01;;;;;;;11.68;7.25;;;13.00;52.80;;;;;;5046804;28;20161;-90
2022/03/09 11:55:48;;;;;;;18.33;6.82;;;13.00;51.30;;;;;;5055176;28;20067;-93
2022/03/09 11:58:32;;;;;;;10.10;6.97;;;13.20;53.50;;;;;;5057107;28;20043;-88
2022/03/09 12:05:24;;;;;;;10.65;6.97;;;13.10;48.80;;;;;;5063550;28;20392;-92
2022/03/09 12:08:44;;;;;;;16.02;7.80;;;13.00;49.10;;;;;;5050075;28;20656;-92
2022/03/09 12:12:11;;;;;;;9.55;7.15;;;12.30;49.50;;;;;;4978392;28;20421;-93
2022/03/09 12:15:06;;;;;;;12.40;6.78;;;13.40;48.30;;;;;;4993516;28;20589;-95
2022/03/09 12:17:50;;;;;;;8.93;7.15;;;13.60;51.50;;;;;;4979694;28;20037;-88
2022/03/09 12:20:49;;;;;;;10.80;7.50;;;13.50;50.50;;;;;;4979556;28;20136;-87
2022/03/09 12:23:34;;;;;;;10.73;7.40;;;13.50;48.10;;;;;;5051472;28;20077;-87
2022/03/09 12:26:50;;;;;;;9.13;7.07;;;14.50;48.90;;;;;;5025121;28;20104;-87
2022/03/09 12:29:35;;;;;;;9.63;7.00;;;13.60;46.70;;;;;;5046770;28;20499;-88
2022/03/09 12:32:22;;;;;;;10.73;7.70;;;13.60;47.80;;;;;;5046566;28;20086;-87
2022/03/09 12:35:07;;;;;;;11.20;7.38;;;13.80;49.30;;;;;;5039389;28;20082;-88
2022/03/09 12:37:53;;;;;;;12.40;7.43;;;13.80;47.60;;;;;;5054136;28;20118;-87
2022/03/09 12:40:38;;;;;;;10.68;7.18;;;13.90;47.80;;;;;;5052022;28;20519;-83
2022/03/09 12:43:23;;;;;;;8.93;7.07;;;13.90;46.20;;;;;;5057054;28;20514;-84
2022/03/09 12:46:08;;;;;;;9.82;6.93;;;13.90;45.80;;;;;;5048738;28;20120;-87
2022/03/09 12:49:21;;;;;;;12.38;7.60;;;13.90;45.70;;;;;;5047974;28;20067;-90
2022/03/09 12:52:07;;;;;;;10.88;7.25;;;13.90;44.60;;;;;;5038123;28;20083;-85
2022/03/09 12:54:58;;;;;;;9.80;6.88;;;14.00;45.90;;;;;;5050357;28;20040;-86
2022/03/09 12:57:54;;;;;;;12.18;6.90;;;14.20;45.90;;;;;;5043311;28;20483;-87
2022/03/09 13:00:38;;;;;;;11.32;7.63;;;14.30;47.10;;;;;;5049128;28;20122;-87
2022/03/09 13:03:22;;;;;;;11.75;7.07;;;14.30;46.60;;;;;;5039001;28;20110;-87
2022/03/09 13:06:26;;;;;;;10.73;7.30;;;14.30;45.80;;;;;;5038089;28;20036;-86
2022/03/09 13:09:25;;;;;;;10.52;7.40;;;14.30;45.50;;;;;;5061632;28;20147;-87
2022/03/09 13:12:13;;;;;;;11.98;7.95;;;14.30;44.80;;;;;;5055039;28;20075;-86
2022/03/09 13:14:57;;;;;;;10.25;7.25;;;14.30;45.30;;;;;;5036248;28;20403;-90
2022/03/09 13:17:48;;;;;;;13.15;7.75;;;14.40;44.80;;;;;;5046730;28;20072;-89
2022/03/09 13:20:33;;;;;;;10.23;7.28;;;14.30;44.10;;;;;;5056787;28;20113;-87
2022/03/09 13:23:30;;;;;;;11.93;7.20;;;14.30;45.10;;;;;;5049352;28;20131;-88
2022/03/09 13:26:22;;;;;;;13.25;7.47;;;14.30;44.00;;;;;;5046181;28;20542;-90
2022/03/09 13:29:21;;;;;;;12.57;7.50;;;14.50;44.60;;;;;;5057871;28;20031;-92
2022/03/09 13:32:09;;;;;;;10.02;6.90;;;14.50;45.10;;;;;;5052237;28;20387;-91
2022/03/09 13:34:56;;;;;;;10.38;7.45;;;14.60;45.00;;;;;;5049290;28;20158;-87
2022/03/09 13:37:43;;;;;;;10.52;7.70;;;14.60;43.80;;;;;;5039326;28;20032;-88
2022/03/09 13:40:28;;;;;;;11.80;7.95;;;14.60;44.40;;;;;;5062102;28;20048;-89
2022/03/09 13:43:15;;;;;;;11.23;8.13;;;14.60;44.40;;;;;;5054942;28;20063;-90
2022/03/09 13:46:31;;;;;;;12.35;7.38;;;14.40;44.40;;;;;;5056767;28;20062;-91
2022/03/09 13:49:16;;;;;;;11.10;7.60;;;13.60;43.20;;;;;;5054162;28;20032;-90
2022/03/09 13:52:19;;;;;;;10.27;7.35;;;14.50;44.70;;;;;;5054015;28;20499;-89
2022/03/09 13:55:20;;;;;;;11.23;7.43;;;14.50;42.90;;;;;;5045462;28;20062;-91
2022/03/09 13:58:26;;;;;;;10.75;7.93;;;14.30;44.20;;;;;;5040997;28;20039;-90
2022/03/09 14:01:19;;;;;;;10.95;8.07;;;14.50;44.90;;;;;;5046784;28;20042;-90
2022/03/09 14:04:11;;;;;;;12.25;7.18;;;14.60;44.00;;;;;;5048328;28;20035;-89
2022/03/09 14:06:58;;;;;;;10.82;7.82;;;14.50;44.30;;;;;;5053817;28;20447;-89
2022/03/09 14:10:02;;;;;;;10.40;8.00;;;14.60;44.20;;;;;;5055856;28;20094;-89
2022/03/09 14:12:47;;;;;;;12.13;7.50;;;14.60;43.70;;;;;;5034394;28;20090;-87
2022/03/09 14:15:50;;;;;;;10.90;8.02;;;14.50;44.00;;;;;;5047072;28;20162;-91
2022/03/09 14:18:34;;;;;;;11.82;8.57;;;14.10;44.50;;;;;;5055580;28;20134;-89
2022/03/09 14:21:22;;;;;;;13.75;8.15;;;14.50;44.50;;;;;;5044097;28;20071;-88
2022/03/09 14:24:17;;;;;;;13.52;8.27;;;14.40;44.10;;;;;;5059982;28;20116;-88
2022/03/09 14:27:17;;;;;;;13.73;8.32;;;14.40;44.90;;;;;;5047725;28;20561;-89
2022/03/09 14:30:09;;;;;;;11.55;8.85;;;14.30;43.90;;;;;;5024229;28;20043;-88
2022/03/09 14:32:57;;;;;;;12.13;8.38;;;14.20;43.70;;;;;;5043107;28;20036;-86
2022/03/09 14:35:41;;;;;;;13.80;8.40;;;14.10;43.70;;;;;;5056210;28;20040;-87
2022/03/09 14:38:28;;;;;;;14.18;8.45;;;14.10;43.80;;;;;;5050346;28;20082;-92
2022/03/09 14:41:14;;;;;;;13.80;8.32;;;13.90;44.40;;;;;;5011742;28;20456;-87
2022/03/09 14:44:01;;;;;;;12.32;8.30;;;14.10;44.20;;;;;;5019227;28;20095;-88
2022/03/09 14:46:55;;;;;;;11.85;8.57;;;14.00;44.60;;;;;;5038072;28;20090;-90
2022/03/09 14:49:39;;;;;;;13.40;8.35;;;14.00;45.40;;;;;;5031656;28;20039;-89
2022/03/09 14:52:30;;;;;;;11.02;8.00;;;14.00;44.80;;;;;;5029448;28;20040;-91
2022/03/09 14:55:26;;;;;;;12.80;8.85;;;14.00;44.80;;;;;;5037826;28;20067;-90
2022/03/09 14:58:18;;;;;;;12.80;8.80;;;13.90;44.90;;;;;;5024409;28;20132;-92
2022/03/09 15:01:03;;;;;;;11.27;8.18;;;13.80;44.30;;;;;;5028791;28;20120;-91
2022/03/09 15:03:51;;;;;;;10.77;8.02;;;13.80;44.60;;;;;;5023953;28;20032;-92
2022/03/09 15:06:38;;;;;;;11.23;8.05;;;13.70;45.40;;;;;;5029049;28;20425;-89
2022/03/09 15:10:16;;;;;;;12.02;8.82;;;13.60;45.10;;;;;;5020382;28;20183;-91
2022/03/09 15:13:57;;;;;;;;;;;;;;;;;;;;;